Time;durP1;ratioP1;P1;durP2;ratioP2;P2;SDS_P1;SDS_P2;PMS_P1;PMS_P2;Temp;Humidity;BMP_temperature;BMP_pressure;BME280_temperature;BME280_humidity;BME280_pressure;Samples;Min_cycle;Max_cycle;Signal;HPM_P1;HPM_P2
2021/09/07 00:00:49;;;;;;;12.70;8.80;;;;;;;10.23;77.63;98267.84;116268;1182;69151;-66
2021/09/07 00:03:19;;;;;;;11.20;8.20;;;;;;;10.22;78.31;98266.67;116246;1181;69101;-69
2021/09/07 00:05:49;;;;;;;;;;;;;;;10.17;78.51;98263.44;116272;1181;59529;-69
2021/09/07 00:08:20;;;;;;;14.40;8.50;;;;;;;10.15;78.65;98267.40;116264;1181;59606;-69
2021/09/07 00:10:49;;;;;;;12.80;9.20;;;;;;;10.16;79.74;98269.09;116282;1181;71347;-66
2021/09/07 00:13:20;;;;;;;10.50;7.10;;;;;;;10.06;81.56;98265.15;116250;1181;68302;-66
2021/09/07 00:15:50;;;;;;;9.70;6.60;;;;;;;10.03;80.15;98267.07;116197;1181;69199;-66
2021/09/07 00:18:20;;;;;;;12.80;9.40;;;;;;;10.00;79.86;98264.27;116276;1176;59485;-69
2021/09/07 00:20:50;;;;;;;10.20;7.80;;;;;;;9.96;80.39;98266.42;116253;1182;59909;-69
2021/09/07 00:23:20;;;;;;;;;;;;;;;9.94;79.80;98266.37;116262;1181;71315;-68
2021/09/07 00:25:51;;;;;;;11.00;7.70;;;;;;;9.91;79.20;98267.71;116284;1181;68247;-66
2021/09/07 00:28:21;;;;;;;11.20;8.70;;;;;;;9.89;78.85;98269.77;116230;1178;69273;-67
2021/09/07 00:30:51;;;;;;;10.50;7.00;;;;;;;9.85;79.49;98270.15;116229;1182;59559;-68
2021/09/07 00:33:22;;;;;;;11.80;7.30;;;;;;;9.85;78.98;98273.81;116285;1181;59968;-69
2021/09/07 00:35:52;;;;;;;9.70;6.10;;;;;;;9.86;79.01;98273.96;116253;1181;71337;-70
2021/09/07 00:38:22;;;;;;;10.70;6.50;;;;;;;9.89;78.40;98270.65;116237;1181;68259;-69
2021/09/07 00:40:53;;;;;;;;;;;;;;;9.93;78.83;98270.75;116202;1178;69236;-68
2021/09/07 00:43:23;;;;;;;8.70;5.80;;;;;;;9.96;79.07;98268.88;116240;1178;59537;-67
2021/09/07 00:45:54;;;;;;;9.90;7.50;;;;;;;9.99;78.60;98263.14;116272;1181;59568;-68
2021/09/07 00:48:24;;;;;;;11.20;7.80;;;;;;;10.01;80.30;98259.67;116251;1181;70664;-69
2021/09/07 00:50:53;;;;;;;;;;;;;;;10.04;80.60;98259.36;116244;1181;68375;-67
2021/09/07 00:53:23;;;;;;;10.10;7.20;;;;;;;10.06;80.21;98258.70;116167;1183;69019;-66
2021/09/07 00:55:57;;;;;;;12.30;8.80;;;;;;;10.07;80.42;98253.58;116232;1181;59545;-68
2021/09/07 00:58:30;;;;;;;9.30;6.30;;;;;;;10.08;80.14;98255.77;116370;1178;59578;-68
2021/09/07 01:01:00;;;;;;;9.60;5.30;;;;;;;10.10;79.16;98255.00;116339;1181;71253;-69
2021/09/07 01:03:31;;;;;;;10.10;6.60;;;;;;;10.10;79.59;98251.84;116340;1182;69149;-66
2021/09/07 01:06:02;;;;;;;10.70;7.20;;;;;;;10.09;80.06;98253.84;116207;1181;69063;-69
2021/09/07 01:08:32;;;;;;;10.00;8.00;;;;;;;10.04;79.48;98253.05;116395;1181;59568;-68
2021/09/07 01:11:03;;;;;;;10.10;7.10;;;;;;;10.01;78.64;98255.01;116380;1181;59542;-67
2021/09/07 01:13:32;;;;;;;10.20;6.10;;;;;;;9.98;77.97;98257.92;116352;1179;71379;-68
2021/09/07 01:16:03;;;;;;;9.00;7.00;;;;;;;9.96;77.31;98255.81;116361;1178;68407;-66
2021/09/07 01:18:33;;;;;;;8.20;5.70;;;;;;;9.94;78.62;98255.05;116196;1181;68426;-68
2021/09/07 01:21:09;;;;;;;;;;;;;;;9.90;77.78;98262.05;116233;1181;59502;-66
2021/09/07 01:23:42;;;;;;;6.20;4.50;;;;;;;9.86;77.49;98261.92;116182;1178;59547;-69
2021/09/07 01:26:16;;;;;;;8.00;5.50;;;;;;;9.84;76.99;98264.45;116232;1181;71360;-68
2021/09/07 01:28:47;;;;;;;10.90;7.20;;;;;;;9.83;77.51;98260.35;116187;1182;68445;-67
2021/09/07 01:31:22;;;;;;;8.20;5.50;;;;;;;9.78;80.03;98263.23;116290;1181;68411;-68
2021/09/07 01:33:56;;;;;;;7.20;4.50;;;;;;;9.77;78.80;98265.43;116310;1178;59552;-66
2021/09/07 01:36:27;;;;;;;6.80;4.80;;;;;;;9.75;77.57;98263.08;116209;1180;59619;-67
2021/09/07 01:38:57;;;;;;;14.10;8.40;;;;;;;9.74;78.21;98261.20;116198;1182;71182;-67
2021/09/07 01:41:27;;;;;;;7.60;5.70;;;;;;;9.73;80.23;98263.20;116192;1183;69099;-68
2021/09/07 01:43:57;;;;;;;9.20;6.00;;;;;;;9.71;79.67;98263.45;116224;1181;69217;-68
2021/09/07 01:46:27;;;;;;;8.80;5.70;;;;;;;9.70;79.25;98265.22;116236;1181;59531;-69
2021/09/07 01:48:57;;;;;;;;;;;;;;;9.68;78.69;98262.21;116229;1181;59905;-67
2021/09/07 01:51:27;;;;;;;7.40;5.30;;;;;;;9.66;79.06;98262.34;116181;1181;72106;-66
2021/09/07 01:53:57;;;;;;;7.90;5.00;;;;;;;9.65;78.13;98265.16;116189;1181;69053;-66
2021/09/07 01:56:27;;;;;;;10.00;6.80;;;;;;;9.64;78.59;98267.13;116193;1181;69382;-68
2021/09/07 01:58:59;;;;;;;7.90;5.50;;;;;;;9.62;78.17;98265.14;116255;1181;59537;-69
2021/09/07 02:01:30;;;;;;;6.90;4.60;;;;;;;9.62;77.60;98268.84;116274;1179;59520;-68
2021/09/07 02:04:01;;;;;;;9.50;7.10;;;;;;;9.59;77.51;98267.95;116204;1181;71315;-66
2021/09/07 02:06:34;;;;;;;9.10;6.30;;;;;;;9.56;78.83;98268.98;116352;1181;67450;-67
2021/09/07 02:09:05;;;;;;;7.80;4.80;;;;;;;9.51;78.13;98265.45;116249;1181;68304;-69
2021/09/07 02:11:36;;;;;;;6.40;4.60;;;;;;;9.48;77.41;98264.93;116360;1179;59530;-67
2021/09/07 02:14:07;;;;;;;8.10;5.40;;;;;;;9.45;77.80;98266.83;116366;1181;59948;-69
2021/09/07 02:16:37;;;;;;;8.40;6.60;;;;;;;9.42;77.95;98268.17;116360;1181;70803;-67
2021/09/07 02:19:07;;;;;;;8.60;5.30;;;;;;;9.39;79.82;98266.60;116341;1178;68270;-67
2021/09/07 02:21:38;;;;;;;7.70;6.10;;;;;;;9.38;77.97;98268.74;116216;1181;69211;-69
2021/09/07 02:24:11;;;;;;;9.40;5.70;;;;;;;9.37;78.89;98267.59;116211;1181;59518;-67
2021/09/07 02:26:43;;;;;;;11.50;7.20;;;;;;;9.40;77.80;98269.04;116306;1182;59597;-69
2021/09/07 02:29:14;;;;;;;8.30;5.50;;;;;;;9.40;78.84;98267.79;116406;1182;71172;-67
2021/09/07 02:31:46;;;;;;;9.30;5.80;;;;;;;9.37;78.51;98265.88;116204;1181;68449;-68
2021/09/07 02:34:16;;;;;;;9.70;6.60;;;;;;;9.34;78.38;98264.30;116275;1181;68450;-69
2021/09/07 02:36:46;;;;;;;8.30;5.30;;;;;;;9.31;79.77;98269.31;116208;1180;59476;-67
2021/09/07 02:39:16;;;;;;;;;;;;;;;9.33;79.13;98266.11;116270;1181;59553;-66
2021/09/07 02:41:46;;;;;;;9.70;6.50;;;;;;;9.34;79.83;98268.83;116239;1181;70230;-69
2021/09/07 02:44:18;;;;;;;9.90;7.40;;;;;;;9.32;80.00;98268.20;116249;1181;69202;-69
2021/09/07 02:46:49;;;;;;;9.70;6.20;;;;;;;9.29;81.41;98271.85;116213;1182;68212;-67
2021/09/07 02:49:19;;;;;;;7.50;4.80;;;;;;;9.28;79.77;98270.15;116253;1182;59569;-66
2021/09/07 02:51:50;;;;;;;10.20;6.10;;;;;;;9.30;79.44;98261.73;116288;1179;59559;-68
2021/09/07 02:54:25;;;;;;;7.30;5.60;;;;;;;9.30;79.60;98266.58;116257;1179;70547;-68
2021/09/07 02:56:55;;;;;;;8.70;4.80;;;;;;;9.29;79.63;98269.98;116338;1180;68123;-67
2021/09/07 02:59:25;;;;;;;9.10;6.20;;;;;;;9.25;79.72;98272.59;116328;1181;68288;-67
2021/09/07 03:01:56;;;;;;;7.60;5.10;;;;;;;9.22;79.29;98272.08;116346;1181;59527;-69
2021/09/07 03:04:27;;;;;;;6.90;4.40;;;;;;;9.18;79.01;98273.64;116315;1181;59537;-67
2021/09/07 03:06:58;;;;;;;5.90;4.40;;;;;;;9.16;78.62;98269.59;116213;1181;71361;-66
2021/09/07 03:09:28;;;;;;;6.00;5.20;;;;;;;9.13;78.46;98272.02;116363;1181;69087;-68
2021/09/07 03:11:58;;;;;;;8.10;5.60;;;;;;;9.10;78.56;98273.91;116212;1181;69132;-68
2021/09/07 03:14:29;;;;;;;8.70;6.40;;;;;;;9.08;79.16;98274.20;116194;1182;59566;-68
2021/09/07 03:17:00;;;;;;;10.10;7.50;;;;;;;9.04;80.91;98277.38;116233;1178;59523;-71
2021/09/07 03:19:30;;;;;;;11.00;6.80;;;;;;;9.00;80.77;98280.55;116347;1181;70736;-71
2021/09/07 03:22:00;;;;;;;;;;;;;;;8.96;79.71;98282.66;116321;1181;69143;-67
2021/09/07 03:24:31;;;;;;;7.70;6.30;;;;;;;8.94;79.91;98283.27;116333;1181;68638;-69
2021/09/07 03:27:02;;;;;;;6.20;4.00;;;;;;;8.91;80.66;98284.48;116312;1181;59584;-69
2021/09/07 03:29:32;;;;;;;9.70;6.60;;;;;;;8.90;79.13;98281.58;116175;1184;59545;-66
2021/09/07 03:32:04;;;;;;;7.30;5.00;;;;;;;8.88;80.36;98287.98;116200;1181;70529;-69
2021/09/07 03:34:36;;;;;;;9.70;5.50;;;;;;;8.86;78.86;98288.07;116212;1181;68708;-67
2021/09/07 03:37:06;;;;;;;10.90;7.40;;;;;;;8.84;79.72;98282.61;116236;1181;69469;-67
2021/09/07 03:39:37;;;;;;;11.00;7.60;;;;;;;8.78;81.41;98285.19;116177;1182;59544;-67
2021/09/07 03:42:11;;;;;;;8.00;4.60;;;;;;;8.73;81.09;98284.40;116227;1181;59597;-67
2021/09/07 03:44:42;;;;;;;8.00;4.90;;;;;;;8.69;80.03;98285.80;116195;1181;71208;-66
2021/09/07 03:47:13;;;;;;;7.80;5.20;;;;;;;8.67;80.66;98285.37;116230;1181;68302;-69
2021/09/07 03:49:43;;;;;;;7.10;3.90;;;;;;;8.64;79.94;98287.44;116210;1181;69371;-69
2021/09/07 03:52:13;;;;;;;8.90;4.80;;;;;;;8.63;80.20;98289.56;116203;1179;59537;-69
2021/09/07 03:54:43;;;;;;;4.80;3.20;;;;;;;8.62;79.56;98291.73;116153;1181;59589;-67
2021/09/07 03:57:14;;;;;;;7.50;5.30;;;;;;;8.62;78.91;98290.84;116233;1181;70653;-68
2021/09/07 03:59:45;;;;;;;11.00;7.60;;;;;;;8.64;79.58;98286.05;116202;1181;68650;-67
2021/09/07 04:02:15;;;;;;;8.50;5.60;;;;;;;8.62;80.79;98288.75;116171;1181;68218;-68
2021/09/07 04:04:45;;;;;;;8.10;5.10;;;;;;;8.62;80.00;98289.63;116299;1179;59527;-66
2021/09/07 04:07:16;;;;;;;9.40;6.60;;;;;;;8.62;80.15;98293.27;116243;1181;59608;-68
2021/09/07 04:09:46;;;;;;;8.90;6.20;;;;;;;8.60;81.04;98292.48;116273;1180;70426;-66
2021/09/07 04:12:16;;;;;;;8.00;6.00;;;;;;;8.59;80.19;98293.23;116197;1181;68685;-67
2021/09/07 04:14:46;;;;;;;7.60;5.00;;;;;;;8.59;79.73;98293.06;116253;1181;68771;-67
2021/09/07 04:17:17;;;;;;;9.20;6.50;;;;;;;8.61;79.98;98294.55;116206;1180;59533;-68
2021/09/07 04:19:48;;;;;;;8.50;5.50;;;;;;;8.63;80.54;98295.11;116149;1182;59551;-68
2021/09/07 04:22:18;;;;;;;6.80;5.00;;;;;;;8.65;79.48;98294.69;116193;1181;71198;-66
2021/09/07 04:24:48;;;;;;;7.20;5.10;;;;;;;8.70;79.73;98298.60;116183;1181;68410;-67
2021/09/07 04:27:17;;;;;;;7.30;4.60;;;;;;;8.80;80.03;98299.13;116340;1181;68856;-68
2021/09/07 04:29:47;;;;;;;7.50;4.70;;;;;;;8.91;79.92;98298.39;116226;1179;59531;-68
2021/09/07 04:32:16;;;;;;;7.90;5.10;;;;;;;8.99;80.00;98300.60;116161;1181;59555;-68
2021/09/07 04:34:45;;;;;;;7.60;5.10;;;;;;;9.02;80.20;98306.67;116248;1182;70537;-66
2021/09/07 04:37:15;;;;;;;6.50;4.10;;;;;;;9.05;79.58;98305.66;116195;1182;69173;-66
2021/09/07 04:39:50;;;;;;;8.40;6.30;;;;;;;9.14;79.28;98305.67;116154;1182;69224;-67
2021/09/07 04:42:20;;;;;;;12.20;6.70;;;;;;;9.33;79.61;98308.55;116177;1182;59536;-68
2021/09/07 04:44:50;;;;;;;6.30;4.30;;;;;;;9.56;78.92;98312.17;116245;1184;59558;-70
2021/09/07 04:47:19;;;;;;;8.50;5.90;;;;;;;9.87;78.61;98309.06;116278;1181;71550;-68
2021/09/07 04:49:49;;;;;;;8.80;4.70;;;;;;;10.21;78.22;98316.04;116256;1182;69014;-69
2021/09/07 04:52:18;;;;;;;7.90;5.90;;;;;;;10.54;77.24;98321.11;116229;1179;69318;-70
2021/09/07 04:54:47;;;;;;;9.20;5.60;;;;;;;10.82;76.28;98325.09;116327;1178;59571;-70
2021/09/07 04:57:17;;;;;;;8.60;5.90;;;;;;;11.09;76.68;98324.84;116297;1181;59525;-69
2021/09/07 04:59:46;;;;;;;9.70;6.10;;;;;;;11.37;75.22;98328.52;116277;1178;71461;-69
2021/09/07 05:02:16;;;;;;;7.00;4.60;;;;;;;11.66;74.83;98321.64;116251;1181;69010;-66
2021/09/07 05:04:46;;;;;;;9.50;6.70;;;;;;;11.97;74.16;98323.91;116219;1179;69225;-67
2021/09/07 05:07:15;;;;;;;9.00;6.00;;;;;;;12.24;72.80;98324.45;116168;1178;59502;-68
2021/09/07 05:09:45;;;;;;;7.70;4.80;;;;;;;12.54;72.04;98324.74;116217;1181;59539;-69
2021/09/07 05:12:14;;;;;;;7.80;4.40;;;;;;;12.93;72.29;98330.52;116236;1182;71464;-68
2021/09/07 05:14:43;;;;;;;6.90;5.50;;;;;;;13.40;70.06;98333.67;116275;1181;69120;-70
2021/09/07 05:17:13;;;;;;;8.60;5.30;;;;;;;13.80;68.73;98331.20;116248;1181;69175;-68
2021/09/07 05:19:43;;;;;;;8.60;5.70;;;;;;;14.16;68.86;98334.52;116302;1181;59542;-69
2021/09/07 05:22:12;;;;;;;10.60;6.40;;;;;;;14.52;69.00;98335.09;116319;1181;59519;-67
2021/09/07 05:24:41;;;;;;;9.70;6.10;;;;;;;14.78;64.14;98341.73;116291;1181;71545;-68
2021/09/07 05:27:10;;;;;;;7.40;5.30;;;;;;;14.90;64.08;98344.50;116206;1181;69224;-69
2021/09/07 05:29:39;;;;;;;11.10;7.00;;;;;;;15.12;65.57;98346.16;116268;1179;68242;-67
2021/09/07 05:32:10;;;;;;;14.30;8.60;;;;;;;15.26;62.28;98344.70;116154;1181;59526;-66
2021/09/07 05:34:40;;;;;;;12.20;8.00;;;;;;;15.23;61.69;98348.30;116176;1181;59543;-67
2021/09/07 05:37:09;;;;;;;8.90;6.30;;;;;;;15.31;62.02;98347.36;116195;1181;71138;-67
2021/09/07 05:39:38;;;;;;;8.40;6.20;;;;;;;15.54;63.92;98350.84;116165;1181;69346;-69
2021/09/07 05:42:08;;;;;;;9.30;5.70;;;;;;;15.77;60.85;98353.40;116243;1182;69280;-70
2021/09/07 05:44:37;;;;;;;12.40;7.30;;;;;;;15.96;59.16;98352.80;116271;1179;59538;-67
2021/09/07 05:47:06;;;;;;;7.00;5.80;;;;;;;16.03;58.10;98347.63;116301;1182;59514;-67
2021/09/07 05:49:35;;;;;;;6.00;4.80;;;;;;;16.10;57.63;98352.55;116154;1179;71204;-67
2021/09/07 05:52:06;;;;;;;7.60;4.20;;;;;;;16.47;58.42;98353.05;116234;1181;68254;-68
2021/09/07 05:54:35;;;;;;;10.80;6.20;;;;;;;16.98;57.71;98355.20;116213;1181;68381;-66
2021/09/07 05:57:05;;;;;;;7.30;5.30;;;;;;;17.29;54.51;98354.52;116066;1179;59571;-68
2021/09/07 05:59:34;;;;;;;;;;;;;;;17.39;53.28;98353.11;116268;1181;59496;-66
2021/09/07 06:02:04;;;;;;;9.10;6.30;;;;;;;17.74;53.66;98353.24;116180;1181;71925;-70
2021/09/07 06:04:34;;;;;;;9.30;6.00;;;;;;;18.00;52.69;98353.84;116222;1181;67612;-66
2021/09/07 06:07:03;;;;;;;5.80;4.30;;;;;;;18.14;52.11;98350.64;116200;1181;69218;-70
2021/09/07 06:09:33;;;;;;;6.50;5.10;;;;;;;18.70;52.88;98352.12;116103;1184;59556;-68
2021/09/07 06:12:03;;;;;;;7.70;4.80;;;;;;;19.19;49.64;98355.95;116298;1179;59530;-70
2021/09/07 06:14:33;;;;;;;6.70;5.00;;;;;;;19.78;50.16;98356.34;116307;1181;70592;-70
2021/09/07 06:17:02;;;;;;;6.30;5.20;;;;;;;20.57;46.81;98354.73;116298;1181;67986;-70
2021/09/07 06:19:31;;;;;;;8.20;6.00;;;;;;;21.04;45.49;98356.96;116289;1178;69216;-71
2021/09/07 06:22:01;;;;;;;;;;;;;;;21.36;44.05;98359.60;116291;1181;59556;-65
2021/09/07 06:24:31;;;;;;;6.20;4.30;;;;;;;21.68;42.91;98358.55;116263;1178;59567;-69
2021/09/07 06:27:01;;;;;;;8.10;5.00;;;;;;;21.98;42.73;98362.56;116238;1179;70421;-67
2021/09/07 06:29:30;;;;;;;8.20;5.80;;;;;;;21.85;41.33;98360.67;116281;1181;68958;-70
2021/09/07 06:31:59;;;;;;;4.30;3.80;;;;;;;21.81;42.00;98358.98;116203;1178;68451;-68
2021/09/07 06:34:28;;;;;;;7.50;4.80;;;;;;;22.27;41.67;98359.89;116066;1179;59551;-69
2021/09/07 06:36:57;;;;;;;;;;;;;;;22.69;40.24;98360.70;116174;1182;59531;-69
2021/09/07 06:39:26;;;;;;;5.10;3.50;;;;;;;22.84;39.50;98367.98;116120;1182;70453;-69
2021/09/07 06:41:55;;;;;;;5.60;3.90;;;;;;;23.19;39.40;98368.28;116173;1181;69154;-66
2021/09/07 06:44:25;;;;;;;5.80;4.20;;;;;;;23.01;38.63;98365.97;116126;1181;69072;-67
2021/09/07 06:46:54;;;;;;;;;;;;;;;23.33;37.81;98366.16;116098;1182;59526;-66
2021/09/07 06:49:23;;;;;;;5.50;3.80;;;;;;;22.60;38.62;98368.13;116165;1181;59495;-69
2021/09/07 06:51:58;;;;;;;7.10;4.20;;;;;;;23.12;37.74;98372.55;116305;1182;69569;-68
2021/09/07 06:54:26;;;;;;;;;;;;;;;23.23;37.13;98371.76;116326;1181;68978;-68
2021/09/07 06:56:55;;;;;;;5.40;3.70;;;;;;;23.28;37.48;98378.11;116304;1181;69087;-66
2021/09/07 06:59:24;;;;;;;5.60;4.30;;;;;;;23.58;35.96;98381.61;116230;1179;59513;-67
2021/09/07 07:01:54;;;;;;;12.80;5.00;;;;;;;23.47;35.77;98382.59;116265;1178;59525;-66
2021/09/07 07:04:24;;;;;;;7.20;4.30;;;;;;;22.39;37.72;98382.83;116255;1181;70355;-70
2021/09/07 07:06:52;;;;;;;5.20;4.20;;;;;;;22.46;37.48;98386.94;116285;1181;69193;-68
2021/09/07 07:09:21;;;;;;;7.30;4.80;;;;;;;22.83;37.06;98386.05;116290;1181;69234;-66
2021/09/07 07:11:50;;;;;;;5.90;3.80;;;;;;;22.10;38.72;98382.33;116270;1181;59554;-68
2021/09/07 07:14:22;;;;;;;6.40;5.30;;;;;;;21.74;39.49;98385.86;116308;1181;59524;-67
2021/09/07 07:16:51;;;;;;;5.30;4.30;;;;;;;22.15;39.12;98389.14;116298;1181;71483;-67
2021/09/07 07:19:20;;;;;;;5.00;4.50;;;;;;;22.67;37.51;98382.61;116373;1181;68395;-68
2021/09/07 07:21:49;;;;;;;6.30;4.40;;;;;;;22.67;37.31;98384.94;116274;1181;69204;-66
2021/09/07 07:24:18;;;;;;;6.70;4.20;;;;;;;22.26;39.19;98390.90;116268;1179;59530;-70
2021/09/07 07:27:02;;;;;;;7.10;4.70;;;;;;;22.55;38.19;98392.40;116256;1181;59469;-67
2021/09/07 07:29:31;;;;;;;5.70;4.10;;;;;;;22.62;38.46;98394.73;116212;1181;70562;-69
2021/09/07 07:32:00;;;;;;;;;;;;;;;22.46;38.68;98396.73;116228;1181;69079;-66
2021/09/07 07:34:29;;;;;;;7.80;4.70;;;;;;;20.99;41.61;98394.34;116268;1178;68341;-69
2021/09/07 07:37:00;;;;;;;6.90;4.60;;;;;;;21.35;40.76;98399.58;116273;1181;59517;-66
2021/09/07 07:39:29;;;;;;;4.30;3.50;;;;;;;21.17;41.95;98402.96;116248;1178;59522;-68
2021/09/07 07:41:59;;;;;;;8.30;5.30;;;;;;;20.80;42.46;98404.88;116229;1181;71334;-65
2021/09/07 07:44:28;;;;;;;7.60;5.30;;;;;;;19.98;44.50;98409.15;116285;1181;68017;-67
2021/09/07 07:46:57;;;;;;;8.10;5.80;;;;;;;19.89;44.79;98409.10;116238;1181;67329;-66
2021/09/07 07:49:26;;;;;;;6.80;4.70;;;;;;;19.89;45.12;98409.85;116227;1181;59911;-67
2021/09/07 07:51:55;;;;;;;7.20;4.90;;;;;;;20.68;42.63;98403.23;116281;1177;59546;-67
2021/09/07 07:54:24;;;;;;;;;;;;;;;20.95;42.60;98402.72;116259;1181;71335;-67
2021/09/07 07:56:54;;;;;;;7.50;5.10;;;;;;;21.39;41.26;98407.17;116157;1178;69019;-67
2021/09/07 07:59:23;;;;;;;7.50;5.20;;;;;;;21.66;40.43;98408.11;116106;1181;69040;-70
2021/09/07 08:01:53;;;;;;;;;;;;;;;21.85;40.22;98406.62;116202;1182;59482;-67
2021/09/07 08:04:23;;;;;;;5.70;4.40;;;;;;;22.13;40.03;98407.88;116250;1178;59537;-67
2021/09/07 08:06:52;;;;;;;7.80;5.00;;;;;;;22.18;40.03;98408.35;116444;1181;70441;-67
2021/09/07 08:09:21;;;;;;;6.80;4.50;;;;;;;22.36;39.72;98405.92;116258;1181;68294;-66
2021/09/07 08:11:50;;;;;;;;;;;;;;;23.06;37.95;98411.27;116252;1181;69181;-69
2021/09/07 08:14:19;;;;;;;8.20;4.40;;;;;;;23.46;37.29;98411.51;116253;1181;59498;-66
2021/09/07 08:16:48;;;;;;;6.00;4.00;;;;;;;23.90;36.63;98415.57;116216;1181;59540;-66
2021/09/07 08:19:17;;;;;;;4.90;3.90;;;;;;;24.45;36.26;98413.95;116215;1181;71468;-68
2021/09/07 08:21:46;;;;;;;5.10;3.80;;;;;;;24.91;36.25;98410.06;116269;1181;69279;-68
2021/09/07 08:24:15;;;;;;;7.10;5.00;;;;;;;25.40;35.56;98412.59;116132;1183;68845;-72
2021/09/07 08:26:44;;;;;;;6.10;5.00;;;;;;;25.86;33.82;98412.32;116220;1181;59543;-66
2021/09/07 08:29:14;;;;;;;7.20;5.70;;;;;;;25.16;33.59;98417.70;116247;1182;59509;-65
2021/09/07 08:31:43;;;;;;;5.80;5.10;;;;;;;23.81;35.79;98415.28;116271;1181;71387;-66
2021/09/07 08:34:12;;;;;;;8.60;6.00;;;;;;;23.47;36.30;98416.15;116240;1181;68496;-68
2021/09/07 08:36:41;;;;;;;7.00;5.50;;;;;;;23.18;37.04;98405.20;116278;1180;68430;-66
2021/09/07 08:39:10;;;;;;;6.70;5.30;;;;;;;23.15;37.19;98403.05;116247;1178;59604;-67
2021/09/07 08:41:39;;;;;;;5.70;3.60;;;;;;;23.76;36.21;98406.45;116129;1181;59501;-68
2021/09/07 08:44:08;;;;;;;7.40;5.70;;;;;;;24.62;35.82;98406.14;116303;1181;71321;-69
2021/09/07 08:46:38;;;;;;;7.40;4.50;;;;;;;24.95;35.13;98406.83;116256;1181;69142;-69
2021/09/07 08:49:14;;;;;;;5.80;4.40;;;;;;;25.57;33.98;98404.86;116319;1177;68367;-71
2021/09/07 08:51:43;;;;;;;6.20;4.40;;;;;;;25.39;33.47;98407.86;116281;1181;59573;-70
2021/09/07 08:54:13;;;;;;;8.30;5.70;;;;;;;24.81;34.69;98413.86;116447;1177;59538;-70
2021/09/07 08:56:42;;;;;;;8.10;5.80;;;;;;;24.03;36.23;98416.06;116259;1178;71158;-72
2021/09/07 08:59:12;;;;;;;7.20;5.50;;;;;;;24.07;35.08;98421.36;116304;1182;69112;-69
2021/09/07 09:01:46;;;;;;;7.10;5.20;;;;;;;23.98;35.47;98415.88;116227;1178;69229;-71
2021/09/07 09:04:27;;;;;;;8.20;5.40;;;;;;;23.98;35.20;98413.97;116193;1178;59555;-67
2021/09/07 09:06:56;;;;;;;6.30;5.00;;;;;;;24.72;34.66;98411.36;116268;1181;59479;-70
2021/09/07 09:09:39;;;;;;;5.40;4.30;;;;;;;25.43;33.23;98407.95;116319;1181;70380;-71
2021/09/07 09:12:08;;;;;;;6.10;4.80;;;;;;;26.31;32.42;98407.73;116217;1182;68406;-70
2021/09/07 09:14:45;;;;;;;5.90;4.20;;;;;;;26.71;31.12;98401.39;116270;1181;69000;-69
2021/09/07 09:17:17;;;;;;;5.90;5.30;;;;;;;27.26;31.16;98402.14;116273;1181;59558;-71
2021/09/07 09:20:13;;;;;;;8.00;5.20;;;;;;;27.73;30.85;98404.04;116306;1181;59469;-68
2021/09/07 09:22:53;;;;;;;6.50;4.50;;;;;;;25.37;32.49;98404.56;116269;1181;71313;-69
2021/09/07 09:25:22;;;;;;;4.50;3.40;;;;;;;26.40;31.49;98401.21;116259;1178;68919;-68
2021/09/07 09:27:56;;;;;;;6.60;5.30;;;;;;;26.60;31.16;98401.27;116225;1181;69308;-70
2021/09/07 09:30:31;;;;;;;6.00;5.20;;;;;;;25.19;33.25;98401.98;116230;1181;59562;-71
2021/09/07 09:33:00;;;;;;;6.10;5.50;;;;;;;25.02;33.64;98399.38;116288;1179;59548;-69
2021/09/07 09:35:29;;;;;;;;;;;;;;;24.22;34.42;98404.46;116240;1178;71322;-72
2021/09/07 09:38:02;;;;;;;7.00;4.90;;;;;;;24.69;33.99;98401.48;116261;1177;68042;-71
2021/09/07 09:40:33;;;;;;;6.50;4.60;;;;;;;25.14;33.54;98393.57;116268;1178;68269;-71
2021/09/07 09:43:20;;;;;;;7.50;5.30;;;;;;;25.23;33.22;98394.94;116249;1179;59505;-71
2021/09/07 09:45:50;;;;;;;6.30;4.20;;;;;;;24.73;33.94;98396.48;116172;1182;59610;-71
2021/09/07 09:48:24;;;;;;;4.60;3.90;;;;;;;25.50;32.97;98392.58;116325;1181;70765;-67
2021/09/07 09:50:55;;;;;;;7.00;4.40;;;;;;;26.68;31.23;98392.95;116272;1178;68980;-69
2021/09/07 09:53:26;;;;;;;6.20;5.00;;;;;;;26.86;30.43;98390.86;116310;1181;68281;-70
2021/09/07 09:55:56;;;;;;;4.10;3.40;;;;;;;27.35;29.38;98389.24;116278;1181;59552;-71
2021/09/07 09:58:26;;;;;;;7.50;4.80;;;;;;;28.11;28.20;98389.27;116296;1178;59475;-71
2021/09/07 10:00:55;;;;;;;5.40;4.60;;;;;;;28.57;27.87;98385.67;116319;1181;70679;-72
2021/09/07 10:03:25;;;;;;;4.20;3.70;;;;;;;28.43;29.29;98387.05;116228;1182;69192;-70
2021/09/07 10:05:55;;;;;;;6.10;4.40;;;;;;;28.86;28.42;98389.80;116311;1181;69288;-70
2021/09/07 10:08:24;;;;;;;6.70;4.80;;;;;;;29.10;26.90;98386.25;116222;1181;59538;-72
2021/09/07 10:11:05;;;;;;;7.30;5.50;;;;;;;29.31;26.47;98380.87;116209;1180;59538;-70
2021/09/07 10:13:35;;;;;;;6.50;4.00;;;;;;;28.84;26.93;98381.11;116253;1181;70679;-69
2021/09/07 10:16:10;;;;;;;5.20;3.90;;;;;;;29.45;27.40;98379.33;116248;1183;68467;-72
2021/09/07 10:26:40;;;;;;;5.00;4.20;;;;;;;29.45;26.56;98370.91;116232;1178;71636;-71
2021/09/07 10:29:10;;;;;;;;;;;;;;;30.11;26.31;98373.52;116175;1183;69119;-74
2021/09/07 10:31:51;;;;;;;5.30;4.10;;;;;;;30.92;25.26;98371.66;116203;1178;69252;-67
2021/09/07 10:34:26;;;;;;;6.10;5.30;;;;;;;31.46;23.92;98371.69;116184;1181;59481;-70
2021/09/07 10:36:55;;;;;;;7.90;4.40;;;;;;;29.34;24.30;98367.33;116219;1182;59482;-72
2021/09/07 10:39:35;;;;;;;;;;;;;;;29.46;23.95;98371.34;116285;1181;71377;-71
2021/09/07 10:42:07;;;;;;;6.30;5.00;;;;;;;28.85;25.08;98365.15;116216;1181;68973;-66
2021/09/07 10:44:38;;;;;;;5.80;4.60;;;;;;;29.28;24.50;98366.08;116333;1181;68410;-70
2021/09/07 10:47:11;;;;;;;6.10;5.10;;;;;;;30.12;23.91;98360.23;116313;1181;59527;-72
2021/09/07 10:49:50;;;;;;;4.80;4.00;;;;;;;30.91;23.40;98358.98;116176;1181;59565;-72
2021/09/07 10:52:20;;;;;;;;;;;;;;;31.42;22.53;98358.80;116288;1178;71363;-70
2021/09/07 10:54:54;;;;;;;4.90;3.40;;;;;;;30.70;23.28;98352.45;116260;1181;68315;-70
2021/09/07 10:57:35;;;;;;;5.80;4.20;;;;;;;31.73;22.16;98352.05;116306;1177;69499;-72
2021/09/07 11:00:13;;;;;;;5.10;3.50;;;;;;;32.46;21.32;98351.67;116254;1181;59486;-72
2021/09/07 11:02:48;;;;;;;6.10;4.30;;;;;;;33.20;20.91;98348.89;116249;1179;59547;-69
2021/09/07 11:05:28;;;;;;;4.30;3.70;;;;;;;33.65;20.43;98346.66;116279;1181;71349;-68
2021/09/07 11:08:12;;;;;;;9.00;5.40;;;;;;;33.39;20.65;98349.56;116282;1178;68310;-67
2021/09/07 11:10:47;;;;;;;7.00;5.40;;;;;;;30.13;22.65;98350.44;116277;1178;68500;-71
2021/09/07 11:13:23;;;;;;;6.50;4.50;;;;;;;31.34;22.40;98344.95;116279;1178;59531;-68
2021/09/07 11:15:55;;;;;;;6.50;4.50;;;;;;;32.02;21.31;98349.30;116284;1181;59474;-67
2021/09/07 11:18:30;;;;;;;5.80;4.50;;;;;;;32.16;21.12;98348.30;116277;1178;71273;-73
2021/09/07 11:21:02;;;;;;;6.50;4.80;;;;;;;31.20;21.24;98346.79;116290;1178;69463;-69
2021/09/07 11:23:33;;;;;;;5.00;3.90;;;;;;;31.76;20.69;98345.02;116301;1181;69356;-68
2021/09/07 11:26:04;;;;;;;6.10;4.80;;;;;;;32.54;20.08;98342.75;116248;1178;59549;-67
2021/09/07 11:28:35;;;;;;;6.30;5.20;;;;;;;32.76;19.51;98338.25;116331;1181;59517;-67
2021/09/07 11:31:06;;;;;;;5.40;3.90;;;;;;;32.61;19.77;98333.75;116298;1178;71142;-69
2021/09/07 11:33:37;;;;;;;7.00;4.10;;;;;;;33.49;19.01;98331.91;116417;1178;69385;-72
2021/09/07 11:36:15;;;;;;;5.50;4.00;;;;;;;33.91;18.18;98326.22;116197;1182;69054;-72
2021/09/07 11:38:49;;;;;;;5.30;3.80;;;;;;;34.50;18.46;98332.02;116273;1179;59952;-68
2021/09/07 11:41:20;;;;;;;7.20;5.00;;;;;;;34.86;18.04;98328.54;116205;1178;59566;-67
2021/09/07 11:43:53;;;;;;;6.20;4.50;;;;;;;35.00;17.38;98324.06;116321;1179;71761;-70
2021/09/07 11:46:29;;;;;;;5.10;4.00;;;;;;;34.81;17.50;98326.44;116413;1178;69158;-70
2021/09/07 11:49:11;;;;;;;4.50;3.90;;;;;;;34.57;17.10;98326.93;116205;1179;68703;-71
2021/09/07 11:51:45;;;;;;;9.10;4.90;;;;;;;33.30;17.74;98321.23;116263;1178;59570;-67
2021/09/07 11:54:19;;;;;;;4.90;4.00;;;;;;;32.22;19.04;98321.29;116334;1182;59482;-69
2021/09/07 11:56:56;;;;;;;5.90;4.60;;;;;;;31.67;19.35;98317.61;116284;1178;71066;-67